Time;durP1;ratioP1;P1;durP2;ratioP2;P2;SDS_P1;SDS_P2;PMS_P1;PMS_P2;Temp;Humidity;BMP_temperature;BMP_pressure;BME280_temperature;BME280_humidity;BME280_pressure;Samples;Min_cycle;Max_cycle;Signal;HPM_P1;HPM_P2
2024/01/13 00:01:21;;;;;;;13.27;5.43;;;;;;;-145.63;42.71;38551.03;5061013;28;20100;-67
2024/01/13 00:03:46;;;;;;;13.02;5.32;;;;;;;-145.63;42.20;38551.03;5061895;28;20444;-64
2024/01/13 00:06:13;;;;;;;11.15;4.90;;;;;;;-145.63;41.77;38580.34;5061957;28;20032;-64
2024/01/13 00:08:39;;;;;;;14.02;5.65;;;;;;;-145.63;41.80;38554.94;5061972;28;20037;-62
2024/01/13 00:11:05;;;;;;;14.48;5.45;;;;;;;-145.63;41.64;38552.97;5061983;28;20017;-65
2024/01/13 00:13:30;;;;;;;10.68;5.40;;;;;;;-145.63;41.48;38554.94;5061725;28;20032;-62
2024/01/13 00:15:56;;;;;;;9.23;4.43;;;;;;;-145.63;41.38;38535.38;5063046;28;20029;-63
2024/01/13 00:18:22;;;;;;;9.90;4.63;;;;;;;-145.63;41.13;38570.56;5065510;28;20021;-62
2024/01/13 00:20:47;;;;;;;12.68;4.97;;;;;;;-145.63;41.65;38562.75;5065890;28;20316;-63
2024/01/13 00:23:13;;;;;;;9.02;5.13;;;;;;;-145.63;40.82;38547.09;5065613;28;20033;-62
2024/01/13 00:25:39;;;;;;;11.48;5.00;;;;;;;-145.63;41.28;38539.28;5065617;28;20098;-63
2024/01/13 00:28:04;;;;;;;11.13;5.20;;;;;;;-145.63;41.53;38578.41;5065649;28;20029;-61
2024/01/13 00:30:30;;;;;;;14.23;5.55;;;;;;;-145.63;41.78;38566.66;5065336;28;20341;-62
2024/01/13 00:32:56;;;;;;;11.75;5.85;;;;;;;-145.63;42.34;38547.09;5065363;28;20044;-61
2024/01/13 00:35:21;;;;;;;19.00;7.15;;;;;;;-145.63;42.37;38551.03;5065530;28;20086;-62
2024/01/13 00:37:47;;;;;;;11.30;5.32;;;;;;;-145.63;41.78;38556.88;5065226;28;20029;-61
2024/01/13 00:40:13;;;;;;;10.50;5.63;;;;;;;-145.63;41.47;38508.00;5064110;28;20024;-61
2024/01/13 00:42:40;;;;;;;13.43;5.25;;;;;;;-145.63;41.40;38535.38;5065220;28;20217;-62
2024/01/13 00:45:06;;;;;;;11.45;5.65;;;;;;;-145.63;41.02;38539.28;5065307;28;20025;-62
2024/01/13 00:47:32;;;;;;;11.15;5.03;;;;;;;-145.63;41.57;38549.06;5065074;28;20345;-62
2024/01/13 00:49:58;;;;;;;10.30;5.25;;;;;;;-145.63;41.22;38466.94;5074415;28;20408;-63
2024/01/13 00:52:24;;;;;;;12.55;5.13;;;;;;;-145.63;41.36;38525.59;5074130;28;20131;-63
2024/01/13 00:54:49;;;;;;;16.48;6.07;;;;;;;-145.63;40.94;38578.41;5065169;28;20025;-62
2024/01/13 00:57:15;;;;;;;11.25;5.38;;;;;;;-145.63;41.38;38537.34;5065089;28;20075;-64
2024/01/13 00:59:41;;;;;;;11.63;5.03;;;;;;;-145.63;41.42;38537.34;5065035;28;20278;-63
2024/01/13 01:02:06;;;;;;;9.88;5.18;;;;;;;-145.63;41.32;38531.47;5064964;28;20089;-63
2024/01/13 01:04:32;;;;;;;10.75;5.28;;;;;;;-145.63;41.19;38525.59;5064952;28;20237;-63
2024/01/13 01:06:58;;;;;;;10.80;4.78;;;;;;;-145.63;41.59;38515.81;5064929;28;20021;-64
2024/01/13 01:09:24;;;;;;;13.50;5.35;;;;;;;-145.63;40.93;38508.00;5064876;28;20056;-63
2024/01/13 01:11:49;;;;;;;9.52;4.80;;;;;;;-145.63;41.90;38537.34;5065070;28;20075;-63
2024/01/13 01:14:15;;;;;;;9.73;5.63;;;;;;;-145.63;41.63;38564.72;5064737;28;20025;-63
2024/01/13 01:16:41;;;;;;;13.20;6.25;;;;;;;-145.63;41.98;38551.03;5064724;28;20190;-63
2024/01/13 01:19:06;;;;;;;12.63;5.85;;;;;;;-145.63;41.91;38566.66;5063419;28;20031;-62
2024/01/13 01:21:32;;;;;;;16.00;6.40;;;;;;;-145.63;41.37;38549.06;5064475;28;20092;-63
2024/01/13 01:23:57;;;;;;;14.45;5.38;;;;;;;-145.63;42.59;38580.34;5064640;28;20351;-62
2024/01/13 01:26:23;;;;;;;15.88;6.05;;;;;;;-145.63;41.04;38533.41;5064433;28;20036;-62
2024/01/13 01:28:49;;;;;;;10.30;5.75;;;;;;;-145.63;41.84;38535.38;5064235;28;20233;-63
2024/01/13 01:31:15;;;;;;;13.68;5.47;;;;;;;-145.63;41.80;38517.78;5064365;28;20087;-62
2024/01/13 01:33:40;;;;;;;10.52;5.55;;;;;;;-145.63;41.76;38527.56;5063975;28;20429;-62
2024/01/13 01:36:06;;;;;;;13.73;6.25;;;;;;;-145.63;41.21;38523.66;5064541;28;20056;-63
2024/01/13 01:38:32;;;;;;;10.32;5.50;;;;;;;-145.63;41.50;38570.56;5063164;28;20029;-62
2024/01/13 01:40:58;;;;;;;13.00;5.68;;;;;;;-145.63;41.61;38539.28;5064184;28;20028;-61
2024/01/13 01:43:23;;;;;;;11.93;5.70;;;;;;;-145.63;42.06;38515.81;5064175;28;20025;-63
2024/01/13 01:45:54;;;;;;;12.13;5.25;;;;;;;-145.63;41.61;38523.66;5064174;28;20252;-61
2024/01/13 01:48:30;;;;;;;13.85;6.07;;;;;;;-145.63;41.74;38525.59;5064048;28;20052;-62
2024/01/13 01:50:56;;;;;;;12.40;5.47;;;;;;;-145.63;42.39;38519.72;5081583;28;20190;-62
2024/01/13 01:53:22;;;;;;;16.08;5.93;;;;;;;-145.63;42.18;38492.34;5065468;28;20039;-64
2024/01/13 01:55:48;;;;;;;10.20;5.43;;;;;;;-145.63;42.48;38515.81;5063944;28;20029;-62
2024/01/13 01:58:15;;;;;;;11.88;5.22;;;;;;;-145.63;41.86;38523.66;5063973;28;20071;-63
2024/01/13 02:00:41;;;;;;;14.95;5.38;;;;;;;-145.63;41.84;38554.94;5063775;28;20317;-63
2024/01/13 02:03:07;;;;;;;12.90;5.80;;;;;;;-145.63;41.84;38535.38;5063799;28;20033;-62
2024/01/13 02:05:33;;;;;;;12.77;5.53;;;;;;;-145.63;42.11;38515.81;5063727;28;20313;-63
2024/01/13 02:07:59;;;;;;;11.23;5.28;;;;;;;-145.63;42.52;38521.69;5062450;28;20035;-63
2024/01/13 02:10:25;;;;;;;15.07;5.70;;;;;;;-145.63;41.65;38511.91;5063636;28;20028;-65
2024/01/13 02:12:51;;;;;;;11.13;5.55;;;;;;;-145.63;42.70;38525.59;5063708;28;20218;-63
2024/01/13 02:15:17;;;;;;;11.43;4.68;;;;;;;-145.63;41.91;38539.28;5063446;28;20025;-63
2024/01/13 02:17:43;;;;;;;13.00;6.03;;;;;;;-145.63;42.37;38416.09;5063385;28;20037;-63
2024/01/13 02:20:29;;;;;;;12.50;5.50;;;;;;;-145.63;42.12;38513.88;5062580;28;20036;-62
2024/01/13 02:22:54;;;;;;;12.23;5.25;;;;;;;-145.63;41.68;38508.00;5063722;28;20025;-62
2024/01/13 02:25:20;;;;;;;11.93;5.68;;;;;;;-145.63;42.33;38525.59;5063487;28;20028;-63
2024/01/13 02:27:46;;;;;;;11.98;5.63;;;;;;;-145.63;41.80;38525.59;5063185;28;20104;-63
2024/01/13 02:30:12;;;;;;;13.45;5.82;;;;;;;-145.63;42.40;38537.34;5063045;28;20037;-63
2024/01/13 02:32:37;;;;;;;20.27;5.85;;;;;;;-145.63;43.00;38521.69;5043345;28;20032;-63
2024/01/13 02:35:03;;;;;;;13.63;5.43;;;;;;;-145.63;42.48;38519.72;5058408;28;20375;-64
2024/01/13 02:37:29;;;;;;;11.35;5.78;;;;;;;-145.63;42.20;38543.19;5062927;28;20198;-63
2024/01/13 02:39:55;;;;;;;14.00;5.50;;;;;;;-145.63;41.63;38517.78;5058311;28;20021;-63
2024/01/13 02:42:21;;;;;;;10.77;5.45;;;;;;;-145.63;42.69;38513.88;5044381;28;20025;-62
2024/01/13 02:44:46;;;;;;;13.23;5.45;;;;;;;-145.63;42.12;38509.97;5061764;28;20092;-62
2024/01/13 02:47:12;;;;;;;11.73;5.65;;;;;;;-145.63;41.91;38472.81;5062905;28;20238;-62
2024/01/13 02:49:38;;;;;;;10.77;5.00;;;;;;;-145.63;42.59;38513.88;5069261;28;20028;-62
2024/01/13 02:52:04;;;;;;;12.57;5.10;;;;;;;-145.63;42.43;38496.28;5075906;28;20025;-63
2024/01/13 02:54:29;;;;;;;17.27;5.70;;;;;;;-145.63;41.99;38506.03;5062618;28;20079;-62
2024/01/13 02:56:55;;;;;;;12.80;5.53;;;;;;;-145.63;42.13;38519.72;5062934;28;20025;-62
2024/01/13 02:59:21;;;;;;;11.95;5.30;;;;;;;-145.63;42.71;38500.19;5062709;28;20358;-63
2024/01/13 03:01:46;;;;;;;14.13;5.10;;;;;;;-145.63;43.30;38527.56;5061477;28;20494;-63
2024/01/13 03:04:12;;;;;;;8.30;4.50;;;;;;;-145.63;43.07;38496.28;5062758;28;20029;-61
2024/01/13 03:06:38;;;;;;;16.10;5.78;;;;;;;-145.63;43.22;38519.72;5062585;28;20025;-62
2024/01/13 03:09:03;;;;;;;10.13;5.10;;;;;;;-145.63;43.02;38498.22;5062547;28;20092;-62
2024/01/13 03:11:29;;;;;;;13.10;5.60;;;;;;;-145.63;42.19;38511.91;5062485;28;20032;-63
2024/01/13 03:13:55;;;;;;;13.13;5.35;;;;;;;-145.63;42.63;38494.31;5062508;28;20022;-62
2024/01/13 03:16:21;;;;;;;10.50;6.07;;;;;;;-145.63;43.00;38502.13;5062310;28;20025;-63
2024/01/13 03:18:47;;;;;;;12.50;5.72;;;;;;;-145.63;42.32;38539.28;5062541;28;20088;-62
2024/01/13 03:21:13;;;;;;;12.98;5.55;;;;;;;-145.63;41.84;38527.56;5062559;28;20206;-63
2024/01/13 03:23:39;;;;;;;12.55;5.00;;;;;;;-145.63;41.91;38527.56;5062432;28;20095;-62
2024/01/13 03:26:05;;;;;;;11.27;5.32;;;;;;;-145.63;42.20;38318.34;5061267;28;20051;-62
2024/01/13 03:28:30;;;;;;;12.70;5.22;;;;;;;-145.63;42.65;38492.34;5060927;28;20025;-63
2024/01/13 03:30:58;;;;;;;13.38;5.32;;;;;;;-145.63;42.88;38492.34;5062360;28;20244;-63
2024/01/13 03:33:23;;;;;;;9.10;4.95;;;;;;;-145.63;42.47;38541.25;5062370;28;20040;-62
2024/01/13 03:35:49;;;;;;;14.30;4.95;;;;;;;-145.63;42.24;38556.88;5062383;28;20340;-63
2024/01/13 03:38:15;;;;;;;13.93;5.68;;;;;;;-145.63;42.23;38494.31;5062279;28;20525;-62
2024/01/13 03:40:41;;;;;;;12.95;5.65;;;;;;;-145.63;42.39;38496.28;5062039;28;20055;-62
2024/01/13 03:43:06;;;;;;;14.07;5.38;;;;;;;-145.63;42.17;38375.03;5062119;28;20096;-62
2024/01/13 03:45:32;;;;;;;15.77;5.32;;;;;;;-145.63;42.56;38490.41;5060741;28;20139;-63
2024/01/13 03:47:58;;;;;;;11.32;5.53;;;;;;;-145.63;42.46;38502.13;5062294;28;20045;-63
2024/01/13 03:50:23;;;;;;;13.52;5.70;;;;;;;-145.63;42.68;38511.91;5075285;28;20496;-62
2024/01/13 03:52:49;;;;;;;13.45;5.68;;;;;;;-145.63;42.35;38533.41;5073628;28;20029;-62
2024/01/13 03:55:15;;;;;;;12.30;6.25;;;;;;;-145.63;42.45;38504.09;5066150;28;20249;-61
2024/01/13 03:57:40;;;;;;;13.73;6.10;;;;;;;-145.63;42.92;38543.19;5066098;28;20020;-61
2024/01/13 04:00:08;;;;;;;14.60;5.88;;;;;;;-145.63;42.52;38513.88;5066146;28;20095;-63
2024/01/13 04:02:33;;;;;;;11.38;5.30;;;;;;;-145.63;42.12;38494.31;5066005;28;20032;-62
2024/01/13 04:04:59;;;;;;;12.07;5.57;;;;;;;-145.63;43.26;38519.72;5066017;28;20084;-63
2024/01/13 04:07:25;;;;;;;13.75;5.30;;;;;;;-145.63;42.93;38511.91;5065971;28;20282;-61
2024/01/13 04:09:50;;;;;;;11.70;5.53;;;;;;;-145.63;43.30;38500.19;5065973;28;20187;-62
2024/01/13 04:12:16;;;;;;;15.02;5.70;;;;;;;-145.63;42.40;38529.50;5065961;28;20033;-62
2024/01/13 04:14:42;;;;;;;20.15;8.23;;;;;;;-145.63;42.96;38492.34;5065766;28;20056;-63
2024/01/13 04:17:07;;;;;;;21.85;9.30;;;;;;;-145.63;43.26;38502.13;5065707;28;20036;-63
2024/01/13 04:19:33;;;;;;;20.90;9.23;;;;;;;-145.63;42.71;38508.00;5065626;28;20040;-62
2024/01/13 04:21:58;;;;;;;17.17;8.45;;;;;;;-145.63;42.40;38519.72;5065762;28;20343;-63
2024/01/13 04:24:24;;;;;;;23.90;10.73;;;;;;;-145.63;42.88;38500.19;5065683;28;20175;-61
2024/01/13 04:26:50;;;;;;;22.88;10.00;;;;;;;-145.63;42.14;38508.00;5065754;28;20021;-64
2024/01/13 04:29:15;;;;;;;20.90;9.55;;;;;;;-145.63;41.92;38519.72;5065236;28;20095;-61
2024/01/13 04:31:41;;;;;;;18.60;9.15;;;;;;;-145.63;41.95;38511.91;5064053;28;20107;-61
2024/01/13 04:34:07;;;;;;;17.48;8.93;;;;;;;-145.63;41.71;38498.22;5065416;28;20029;-62
2024/01/13 04:36:33;;;;;;;16.90;7.70;;;;;;;-145.63;42.69;38486.50;5065366;28;20233;-62
2024/01/13 04:38:58;;;;;;;18.17;7.43;;;;;;;-145.63;42.58;38496.28;5065418;28;20032;-62
2024/01/13 04:41:24;;;;;;;13.80;6.47;;;;;;;-145.63;41.97;38508.00;5065234;28;20021;-64
2024/01/13 04:43:50;;;;;;;13.80;6.40;;;;;;;-145.63;41.55;38502.13;5065228;28;20024;-63
2024/01/13 04:46:16;;;;;;;18.67;7.15;;;;;;;-145.63;42.29;38556.88;5065102;28;20040;-64
2024/01/13 04:48:41;;;;;;;11.80;5.65;;;;;;;-145.63;43.01;38494.31;5064852;28;20037;-64
2024/01/13 04:51:07;;;;;;;12.85;5.60;;;;;;;-145.63;42.81;38506.03;5083962;28;20095;-63
2024/01/13 04:53:33;;;;;;;10.32;5.30;;;;;;;-145.63;41.95;38494.31;5066541;28;20096;-64
2024/01/13 04:55:59;;;;;;;12.90;5.65;;;;;;;-145.63;42.02;38531.47;5065164;28;20197;-64
2024/01/13 04:58:25;;;;;;;13.48;5.88;;;;;;;-145.63;41.77;38369.19;5064774;28;20036;-63
2024/01/13 05:00:51;;;;;;;11.15;5.80;;;;;;;-145.63;41.99;38539.28;5064827;28;20285;-64
2024/01/13 05:03:17;;;;;;;11.50;5.75;;;;;;;-145.63;41.82;38508.00;5063141;28;20175;-64
2024/01/13 05:05:42;;;;;;;16.50;6.15;;;;;;;-145.63;42.37;38464.97;5063225;28;20298;-63
2024/01/13 05:08:08;;;;;;;11.18;5.97;;;;;;;-145.63;43.07;38496.28;5064592;28;20047;-63
2024/01/13 05:10:34;;;;;;;13.65;6.13;;;;;;;-145.63;42.39;38488.44;5064573;28;20032;-62
2024/01/13 05:13:00;;;;;;;9.73;4.82;;;;;;;-145.63;42.26;38506.03;5063569;28;20036;-63
2024/01/13 05:15:26;;;;;;;11.38;4.72;;;;;;;-145.63;42.25;38515.81;5064513;28;20347;-63
2024/01/13 05:17:51;;;;;;;14.07;5.53;;;;;;;-145.63;42.10;38500.19;5064594;28;20048;-64
2024/01/13 05:20:17;;;;;;;9.73;5.15;;;;;;;-145.63;42.43;38521.69;5064627;28;20079;-63
2024/01/13 05:22:43;;;;;;;12.80;5.30;;;;;;;-145.63;41.80;38519.72;5064378;28;20024;-63
2024/01/13 05:25:08;;;;;;;13.70;5.72;;;;;;;-145.63;42.12;38496.28;5064395;28;20308;-62
2024/01/13 05:27:34;;;;;;;13.90;5.75;;;;;;;-145.63;41.84;38484.53;5064375;28;20090;-63
2024/01/13 05:30:00;;;;;;;18.02;7.60;;;;;;;-145.63;42.47;38496.28;5062759;28;20041;-63
2024/01/13 05:32:26;;;;;;;11.18;6.10;;;;;;;-145.63;42.58;38502.13;5064040;28;20077;-62
2024/01/13 05:34:51;;;;;;;16.98;6.07;;;;;;;-145.63;43.02;38500.19;5064288;28;20245;-62
2024/01/13 05:37:17;;;;;;;15.90;6.65;;;;;;;-145.63;42.81;38488.44;5063078;28;20071;-61
2024/01/13 05:39:43;;;;;;;13.70;5.82;;;;;;;-145.63;41.85;38502.13;5062808;28;20036;-63
2024/01/13 05:42:08;;;;;;;15.02;6.00;;;;;;;-145.63;42.05;38494.31;5054613;28;20218;-63
2024/01/13 05:44:34;;;;;;;11.65;5.95;;;;;;;-145.63;43.10;38455.22;5061795;28;20017;-63
2024/01/13 05:47:00;;;;;;;14.02;5.15;;;;;;;-145.63;42.66;38453.25;5042808;28;20052;-63
2024/01/13 05:49:26;;;;;;;10.38;5.30;;;;;;;-145.63;42.35;38484.53;5061416;28;20024;-63
2024/01/13 05:51:52;;;;;;;14.00;6.03;;;;;;;-145.63;41.95;38445.44;5080364;28;20028;-64
2024/01/13 05:54:18;;;;;;;11.00;5.28;;;;;;;-145.63;42.24;38453.25;5064186;28;20024;-64
2024/01/13 05:56:43;;;;;;;17.30;5.93;;;;;;;-145.63;42.24;38457.16;5063495;28;20298;-64
2024/01/13 05:59:09;;;;;;;12.90;5.60;;;;;;;-145.63;42.13;38466.94;5062612;28;20025;-64
2024/01/13 06:01:35;;;;;;;11.77;5.30;;;;;;;-145.63;40.91;38476.72;5063753;28;20029;-64
2024/01/13 06:04:01;;;;;;;9.98;4.50;;;;;;;-145.63;42.25;38488.44;5063725;28;20029;-64
2024/01/13 06:06:26;;;;;;;10.88;5.53;;;;;;;-145.63;41.72;38449.34;5045747;28;20035;-63
2024/01/13 06:08:52;;;;;;;14.15;5.50;;;;;;;-145.63;41.16;38453.25;5062210;28;20103;-63
2024/01/13 06:11:19;;;;;;;15.70;5.68;;;;;;;-145.63;41.83;38466.94;5063659;28;20090;-62
2024/01/13 06:13:44;;;;;;;13.50;6.10;;;;;;;-145.63;42.31;38453.25;5061163;28;20139;-62
2024/01/13 06:16:10;;;;;;;13.50;5.68;;;;;;;-145.63;42.22;38445.44;5063565;28;20025;-64
2024/01/13 06:18:36;;;;;;;16.42;6.18;;;;;;;-145.63;42.91;38445.44;5063349;28;20053;-64
2024/01/13 06:21:01;;;;;;;14.48;6.70;;;;;;;-145.63;42.08;38439.56;5063530;28;20025;-64
2024/01/13 06:23:27;;;;;;;13.48;5.95;;;;;;;-145.63;42.98;38476.72;5063265;28;20021;-65
2024/01/13 06:25:53;;;;;;;15.43;6.25;;;;;;;-145.63;42.55;38285.09;5063402;28;20036;-63
2024/01/13 06:28:19;;;;;;;15.07;5.90;;;;;;;-145.63;43.14;38466.94;5063236;28;20025;-63
2024/01/13 06:30:44;;;;;;;14.45;5.80;;;;;;;-145.63;42.80;38445.44;5078588;28;20662;-64
2024/01/13 06:33:10;;;;;;;16.40;7.15;;;;;;;-145.63;43.35;38474.75;5063195;28;20044;-63
2024/01/13 06:35:36;;;;;;;13.68;6.40;;;;;;;-145.63;42.94;38429.78;5063125;28;20088;-65
2024/01/13 06:38:03;;;;;;;15.80;7.05;;;;;;;-145.63;42.97;38466.94;5062998;28;20078;-64
2024/01/13 06:40:29;;;;;;;14.95;6.53;;;;;;;-145.63;43.19;38455.22;5063067;28;20032;-65
2024/01/13 06:42:54;;;;;;;16.50;7.53;;;;;;;-145.63;42.91;38484.53;5062726;28;20025;-63
2024/01/13 06:45:20;;;;;;;12.88;6.53;;;;;;;-145.63;43.47;38445.44;5063027;28;20075;-62
2024/01/13 06:47:46;;;;;;;18.13;8.70;;;;;;;-145.63;42.75;38464.97;5062707;28;20044;-62
2024/01/13 06:50:12;;;;;;;16.45;7.85;;;;;;;-145.63;43.11;38420.00;5074358;28;20251;-62
2024/01/13 06:52:38;;;;;;;19.25;8.13;;;;;;;-145.63;43.50;38445.44;5073169;28;20496;-62
2024/01/13 06:55:07;;;;;;;16.17;7.90;;;;;;;-145.63;43.03;38437.59;5062846;28;20067;-63
2024/01/13 06:57:33;;;;;;;24.27;8.00;;;;;;;-145.63;42.61;38431.75;5061468;28;20033;-63
2024/01/13 06:59:59;;;;;;;17.58;9.07;;;;;;;-145.63;42.82;38547.09;5062932;28;20053;-64
2024/01/13 07:02:24;;;;;;;17.63;9.45;;;;;;;-145.63;42.75;38474.75;5062853;28;20043;-63
2024/01/13 07:04:50;;;;;;;23.95;9.10;;;;;;;-145.63;42.60;38427.84;5061454;28;20163;-62
2024/01/13 07:07:16;;;;;;;17.52;9.32;;;;;;;-145.63;42.29;38437.59;5060470;28;20043;-62
2024/01/13 07:09:42;;;;;;;27.02;10.80;;;;;;;-145.63;42.17;38455.22;5062381;28;20079;-63
2024/01/13 07:12:09;;;;;;;23.13;10.55;;;;;;;-145.63;42.51;38437.59;5062880;28;20025;-65
2024/01/13 07:14:35;;;;;;;32.80;10.88;;;;;;;-145.63;42.03;38490.41;5062234;28;20021;-65
2024/01/13 07:17:00;;;;;;;23.58;9.60;;;;;;;-145.63;42.28;38474.75;5061849;28;20047;-66
2024/01/13 07:19:26;;;;;;;20.20;10.68;;;;;;;-145.63;41.48;38437.59;5061581;28;20070;-65
2024/01/13 07:21:53;;;;;;;23.60;11.35;;;;;;;-145.63;42.22;38468.91;5061619;28;20025;-65
2024/01/13 07:24:19;;;;;;;21.48;10.02;;;;;;;-145.63;42.25;38464.97;5062297;28;20052;-64
2024/01/13 07:26:45;;;;;;;24.67;11.13;;;;;;;-145.63;41.74;38506.03;5062231;28;20295;-64
2024/01/13 07:29:10;;;;;;;26.90;12.13;;;;;;;-145.63;41.74;38398.50;5060596;28;20116;-64
2024/01/13 07:31:36;;;;;;;27.85;11.50;;;;;;;-145.63;42.21;38494.31;5060736;28;20202;-64
2024/01/13 07:34:02;;;;;;;20.33;10.55;;;;;;;-145.63;41.78;38468.91;5061028;28;20044;-66
2024/01/13 07:36:28;;;;;;;19.50;9.23;;;;;;;-145.63;41.78;38445.44;5062493;28;20031;-65
2024/01/13 07:38:54;;;;;;;25.33;10.82;;;;;;;-145.63;41.45;38466.94;5062477;28;20092;-65
2024/01/13 07:41:19;;;;;;;23.40;9.70;;;;;;;-145.63;41.44;38453.25;5061015;28;20036;-63
2024/01/13 07:43:45;;;;;;;18.45;9.43;;;;;;;-145.63;40.61;38476.72;5060980;28;20261;-64
2024/01/13 07:46:14;;;;;;;20.42;9.57;;;;;;;-145.63;41.62;38478.66;5061095;28;20029;-64
2024/01/13 07:48:40;;;;;;;23.83;10.38;;;;;;;-145.63;41.23;38445.44;5060435;28;20033;-62
2024/01/13 07:51:05;;;;;;;23.88;9.63;;;;;;;-145.63;41.47;38486.50;5079604;28;20024;-62
2024/01/13 07:53:31;;;;;;;24.90;10.40;;;;;;;-145.63;40.50;38457.16;5080703;28;20047;-62
2024/01/13 07:55:58;;;;;;;19.27;8.75;;;;;;;-145.63;41.17;38486.50;5069316;28;20025;-64
2024/01/13 07:58:24;;;;;;;20.58;9.68;;;;;;;-145.63;40.98;38488.44;5061729;28;20021;-64
2024/01/13 08:00:50;;;;;;;19.50;9.48;;;;;;;-145.63;41.10;38492.34;5061930;28;20378;-64
2024/01/13 08:03:15;;;;;;;19.77;8.77;;;;;;;-145.63;41.02;38457.16;5062027;28;20306;-64
2024/01/13 08:05:41;;;;;;;19.73;9.30;;;;;;;-145.63;40.11;38433.69;5061353;28;20025;-64
2024/01/13 08:08:07;;;;;;;25.30;8.88;;;;;;;-145.63;39.43;38386.78;5061950;28;20025;-65
2024/01/13 08:10:36;;;;;;;19.75;9.45;;;;;;;-145.63;38.69;38437.59;5061704;28;20244;-62
2024/01/13 08:13:04;;;;;;;21.27;9.13;;;;;;;-145.63;39.41;38504.09;5061543;28;20374;-64
2024/01/13 08:15:30;;;;;;;20.80;9.00;;;;;;;-145.63;39.95;38474.75;5061712;28;20032;-63
2024/01/13 08:17:56;;;;;;;16.77;9.30;;;;;;;-145.63;38.73;38431.75;5061708;28;20033;-64
2024/01/13 08:20:21;;;;;;;19.83;9.95;;;;;;;-145.63;39.32;38451.28;5061682;28;20040;-63
2024/01/13 08:22:48;;;;;;;19.65;9.35;;;;;;;-145.63;39.03;38464.97;5060351;28;20075;-63
2024/01/13 08:25:14;;;;;;;15.10;9.15;;;;;;;-145.63;39.13;38482.59;5061452;28;20314;-63
2024/01/13 08:27:40;;;;;;;16.88;9.02;;;;;;;-145.63;38.24;38547.09;5060123;28;20233;-63
2024/01/13 08:30:06;;;;;;;17.67;8.77;;;;;;;-145.63;36.98;38519.72;5061574;28;20064;-63
2024/01/13 08:32:32;;;;;;;17.50;9.32;;;;;;;-145.63;37.44;38513.88;5061497;28;20040;-64
2024/01/13 08:34:58;;;;;;;18.80;8.90;;;;;;;-145.63;37.09;38523.66;5060292;28;20057;-62
2024/01/13 08:37:24;;;;;;;16.92;9.48;;;;;;;-145.63;37.98;38490.41;5063506;28;20020;-64
2024/01/13 08:39:50;;;;;;;15.93;9.10;;;;;;;-145.63;38.99;38500.19;5063924;28;20412;-64
2024/01/13 08:42:16;;;;;;;17.10;8.90;;;;;;;-145.63;37.97;38490.41;5064882;28;20352;-63
2024/01/13 08:44:42;;;;;;;20.10;9.32;;;;;;;-145.63;37.77;38466.94;5063545;28;20029;-63
2024/01/13 08:47:09;;;;;;;16.40;8.82;;;;;;;-145.63;37.11;38519.72;5064802;28;20063;-63
2024/01/13 08:49:35;;;;;;;19.20;9.38;;;;;;;-145.63;37.48;38466.94;5069321;28;20240;-64
2024/01/13 08:52:01;;;;;;;22.83;9.20;;;;;;;-145.63;37.63;38474.75;5081396;28;20305;-64
2024/01/13 08:54:27;;;;;;;20.48;9.50;;;;;;;-145.63;37.82;38384.81;5064905;28;20040;-64
2024/01/13 08:56:53;;;;;;;18.55;9.60;;;;;;;-145.63;37.17;38490.41;5063665;28;20100;-63
2024/01/13 08:59:18;;;;;;;19.50;9.35;;;;;;;-145.63;35.63;38449.34;5063358;28;20091;-64
2024/01/13 09:01:45;;;;;;;17.05;8.65;;;;;;;-145.63;36.66;38441.53;5064733;28;20039;-64
2024/01/13 09:04:11;;;;;;;20.23;9.15;;;;;;;-145.63;36.38;38443.47;5064915;28;20032;-62
2024/01/13 09:06:37;;;;;;;20.20;9.13;;;;;;;-145.63;36.73;38433.69;5064743;28;20055;-63
2024/01/13 09:09:04;;;;;;;16.55;9.15;;;;;;;-145.63;36.04;38488.44;5064136;28;20326;-63
2024/01/13 09:11:30;;;;;;;20.42;10.02;;;;;;;-145.63;36.06;38547.09;5063951;28;20047;-65
2024/01/13 09:13:56;;;;;;;20.98;10.38;;;;;;;-145.63;35.28;38502.13;5060274;28;20274;-64
2024/01/13 09:16:21;;;;;;;19.83;9.80;;;;;;;-145.63;36.08;38558.84;5064535;28;20032;-63
2024/01/13 09:18:47;;;;;;;18.42;8.05;;;;;;;-145.63;36.97;38552.97;5064492;28;20029;-64
2024/01/13 09:21:16;;;;;;;20.58;9.57;;;;;;;-145.63;35.89;38558.84;5064422;28;20159;-63
2024/01/13 09:23:42;;;;;;;24.42;10.13;;;;;;;-145.63;35.49;38486.50;5064160;28;20033;-63
2024/01/13 09:26:08;;;;;;;20.08;9.82;;;;;;;-145.63;35.48;38500.19;5063297;28;20033;-63
2024/01/13 09:28:33;;;;;;;22.95;9.90;;;;;;;-145.63;35.99;38472.81;5063477;28;20028;-64
2024/01/13 09:30:59;;;;;;;21.20;10.20;;;;;;;-145.63;35.41;38423.91;5063630;28;20093;-64
2024/01/13 09:33:25;;;;;;;22.58;10.55;;;;;;;-145.63;35.27;38535.38;5064463;28;20028;-64
2024/01/13 09:35:51;;;;;;;19.00;10.10;;;;;;;-145.63;35.83;38551.03;5066563;28;20203;-64
2024/01/13 09:38:17;;;;;;;19.83;10.15;;;;;;;-145.63;35.51;38596.00;5064152;28;20268;-63
2024/01/13 09:40:43;;;;;;;26.08;9.98;;;;;;;-145.63;36.67;38576.44;5066787;28;20471;-65
2024/01/13 09:43:31;;;;;;;17.90;10.02;;;;;;;-145.63;36.31;38459.13;5070851;28;20025;-63
2024/01/13 09:45:57;;;;;;;20.88;10.75;;;;;;;-145.63;35.72;38547.09;5064074;28;20025;-64
2024/01/13 09:48:23;;;;;;;19.00;11.02;;;;;;;-145.63;36.32;38552.97;5064115;28;20029;-63
2024/01/13 09:50:54;;;;;;;19.40;11.10;;;;;;;-145.63;35.57;38494.31;5078817;28;20216;-63
2024/01/13 09:53:28;;;;;;;17.60;9.00;;;;;;;-145.63;36.06;38551.03;5070078;28;20025;-63
2024/01/13 09:56:08;;;;;;;19.98;10.23;;;;;;;-145.63;35.99;38347.66;5063768;28;20039;-63
2024/01/13 09:58:34;;;;;;;19.92;9.68;;;;;;;-145.63;35.64;38578.41;5063290;28;20028;-62
2024/01/13 10:01:00;;;;;;;20.98;10.20;;;;;;;-145.63;37.58;38545.16;5062170;28;20021;-64
2024/01/13 10:03:26;;;;;;;20.27;10.38;;;;;;;-145.63;37.16;38601.84;5063657;28;20060;-63
2024/01/13 10:05:55;;;;;;;21.63;10.73;;;;;;;-145.63;36.27;38562.75;5063582;28;20025;-63
2024/01/13 10:08:30;;;;;;;19.23;10.02;;;;;;;-145.63;36.82;38578.41;5060116;28;20029;-63
2024/01/13 10:10:56;;;;;;;18.73;10.48;;;;;;;-145.63;36.48;38529.50;5067380;28;20049;-64
2024/01/13 10:13:24;;;;;;;21.15;10.80;;;;;;;-145.63;36.36;38574.47;5062773;28;20335;-63
2024/01/13 10:15:49;;;;;;;20.80;10.07;;;;;;;-145.63;36.01;38588.16;5063395;28;20044;-65
2024/01/13 10:18:15;;;;;;;22.08;11.57;;;;;;;-145.63;36.50;38539.28;5063583;28;20016;-64
2024/01/13 10:20:44;;;;;;;21.00;10.73;;;;;;;-145.63;36.63;38551.03;5062036;28;20033;-63
2024/01/13 10:23:11;;;;;;;27.95;15.50;;;;;;;-145.63;36.19;38416.09;5063086;28;20025;-63
2024/01/13 10:25:37;;;;;;;22.05;11.77;;;;;;;-145.63;36.80;38584.25;5062475;28;20044;-65
2024/01/13 10:28:03;;;;;;;21.10;11.75;;;;;;;-145.63;36.80;38619.47;5063113;28;20088;-64
2024/01/13 10:30:30;;;;;;;20.48;12.35;;;;;;;-145.63;36.49;38547.09;5062948;28;20400;-64
2024/01/13 10:32:59;;;;;;;21.80;12.05;;;;;;;-145.63;35.85;38562.75;5062984;28;20318;-65
2024/01/13 10:35:27;;;;;;;28.75;13.50;;;;;;;-145.63;35.61;38603.81;5063126;28;20029;-63
2024/01/13 10:38:00;;;;;;;19.60;11.63;;;;;;;-145.63;35.73;38584.25;5062564;28;20051;-65
2024/01/13 10:40:26;;;;;;;22.75;13.00;;;;;;;-145.63;35.76;38613.59;5062980;28;20060;-64
2024/01/13 10:42:55;;;;;;;22.95;12.18;;;;;;;-145.63;36.97;38592.09;5062509;28;20249;-64
2024/01/13 10:45:25;;;;;;;20.73;12.32;;;;;;;-145.63;36.70;38633.16;5061826;28;20369;-64
2024/01/13 10:48:02;;;;;;;24.27;12.45;;;;;;;-145.63;37.21;38625.31;5061039;28;20035;-64
2024/01/13 10:50:30;;;;;;;20.90;11.15;;;;;;;-145.63;36.16;38613.59;5076350;28;20024;-66
2024/01/13 10:53:20;;;;;;;22.17;11.52;;;;;;;-145.63;37.66;38613.59;5076539;28;20236;-63
2024/01/13 10:55:47;;;;;;;22.10;11.55;;;;;;;-145.63;36.98;38678.13;5074044;28;20025;-64
2024/01/13 10:58:14;;;;;;;21.00;12.32;;;;;;;-145.63;36.25;38613.59;5062328;28;20389;-65
2024/01/13 11:00:41;;;;;;;19.48;11.55;;;;;;;-145.63;36.04;38590.13;5060804;28;20031;-63
2024/01/13 11:03:07;;;;;;;19.20;12.15;;;;;;;-145.63;37.23;38627.28;5062305;28;20290;-63